Time;durP1;ratioP1;P1;durP2;ratioP2;P2;SDS_P1;SDS_P2;PMS_P1;PMS_P2;Temp;Humidity;BMP_temperature;BMP_pressure;BME280_temperature;BME280_humidity;BME280_pressure;Samples;Min_cycle;Max_cycle;Signal;HPM_P1;HPM_P2
2023/06/02 00:00:39;;;;;;;23.60;8.40;;;;;;;14.36;61.33;98573.08;135974;1275;22532;-68
2023/06/02 00:04:02;;;;;;;24.30;8.00;;;;;;;14.36;61.86;98573.71;136012;1275;22534;-66
2023/06/02 00:07:05;;;;;;;24.80;8.60;;;;;;;14.39;61.66;98568.25;135995;1275;22516;-70
2023/06/02 00:10:07;;;;;;;;;;;;;;;14.37;61.93;98563.88;136069;1275;22494;-66
2023/06/02 00:13:09;;;;;;;25.30;9.20;;;;;;;14.39;62.17;98565.97;136060;1275;22534;-68
2023/06/02 00:16:15;;;;;;;;;;;;;;;14.38;61.91;98564.79;136174;1275;25281;-68
2023/06/02 00:19:18;;;;;;;22.70;7.70;;;;;;;14.34;62.31;98566.92;136145;1275;22535;-67
2023/06/02 00:22:21;;;;;;;22.30;7.90;;;;;;;14.35;61.83;98562.40;136031;1275;22546;-67
2023/06/02 00:25:23;;;;;;;22.50;7.70;;;;;;;14.38;61.63;98564.47;136107;1275;22504;-71
2023/06/02 00:28:26;;;;;;;;;;;;;;;14.32;61.96;98563.81;136052;1275;22545;-64
2023/06/02 00:31:28;;;;;;;21.50;7.80;;;;;;;14.31;62.59;98566.61;136108;1275;22513;-66
2023/06/02 00:34:31;;;;;;;;;;;;;;;14.24;62.57;98564.86;136092;1275;22542;-67
2023/06/02 00:37:33;;;;;;;23.50;7.60;;;;;;;14.02;63.12;98565.50;136079;1275;24224;-66
2023/06/02 00:40:36;;;;;;;;;;;;;;;14.06;63.27;98566.60;136057;1275;22509;-69
2023/06/02 00:43:38;;;;;;;22.00;7.50;;;;;;;13.98;63.78;98566.08;136092;1275;22542;-67
2023/06/02 00:46:40;;;;;;;;;;;;;;;13.93;63.59;98566.80;136117;1275;22497;-68
2023/06/02 00:49:43;;;;;;;24.80;8.60;;;;;;;13.83;63.95;98564.26;136068;1275;22521;-67
2023/06/02 00:52:45;;;;;;;31.80;9.60;;;;;;;13.70;63.92;98568.54;136050;1275;22718;-70
2023/06/02 00:55:48;;;;;;;;;;;;;;;13.64;64.52;98565.17;136130;1275;22510;-69
2023/06/02 00:58:50;;;;;;;23.30;7.80;;;;;;;13.61;64.92;98561.18;136073;1275;22543;-69
2023/06/02 01:01:53;;;;;;;;;;;;;;;13.51;65.08;98562.14;136087;1275;22560;-67
2023/06/02 01:04:57;;;;;;;25.20;8.20;;;;;;;13.45;65.91;98560.65;136063;1275;22517;-67
2023/06/02 01:08:00;;;;;;;27.50;8.70;;;;;;;13.50;65.46;98565.39;136076;1275;22540;-66
2023/06/02 01:11:03;;;;;;;22.40;8.10;;;;;;;13.48;66.25;98562.70;136026;1275;24228;-69
2023/06/02 01:14:06;;;;;;;;;;;;;;;13.36;66.48;98564.51;136078;1275;22511;-68
2023/06/02 01:17:09;;;;;;;23.60;8.70;;;;;;;13.13;67.45;98559.75;136095;1275;22800;-66
2023/06/02 01:20:12;;;;;;;23.80;8.60;;;;;;;12.95;67.98;98558.81;136072;1275;22521;-66
2023/06/02 01:23:16;;;;;;;;;;;;;;;12.91;67.39;98554.85;136101;1275;22502;-68
2023/06/02 01:26:23;;;;;;;22.10;8.00;;;;;;;12.92;67.33;98548.64;135984;1276;24222;-68
2023/06/02 01:29:26;;;;;;;;;;;;;;;12.96;67.50;98552.93;135980;1276;22536;-68
2023/06/02 01:32:29;;;;;;;23.60;8.40;;;;;;;13.11;67.47;98555.46;135982;1276;22496;-65
2023/06/02 01:35:31;;;;;;;25.90;9.40;;;;;;;13.21;67.22;98557.54;135958;1276;22524;-67
2023/06/02 01:38:34;;;;;;;;;;;;;;;13.27;66.83;98557.80;136011;1276;25288;-67
2023/06/02 01:41:37;;;;;;;;;;;;;;;13.27;67.16;98555.85;135987;1276;22497;-67
2023/06/02 01:44:39;;;;;;;29.50;9.40;;;;;;;13.29;67.27;98557.46;135999;1276;22524;-65
2023/06/02 01:47:41;;;;;;;;;;;;;;;13.29;67.25;98557.30;136009;1276;23545;-67
2023/06/02 01:50:44;;;;;;;29.90;9.30;;;;;;;13.26;67.41;98558.75;135963;1254;24430;-66
2023/06/02 01:53:47;;;;;;;22.80;8.80;;;;;;;13.18;67.39;98560.55;135979;1276;22543;-66
2023/06/02 01:56:49;;;;;;;;;;;;;;;13.03;67.68;98558.17;136025;1276;22536;-67
2023/06/02 01:59:52;;;;;;;27.60;8.50;;;;;;;12.95;68.15;98558.96;135955;1276;22534;-66
2023/06/02 02:02:54;;;;;;;25.20;8.00;;;;;;;12.96;68.41;98560.14;135985;1276;22517;-67
2023/06/02 02:05:56;;;;;;;;;;;;;;;13.09;68.18;98565.45;135965;1276;22512;-69
2023/06/02 02:08:59;;;;;;;27.30;9.70;;;;;;;13.13;68.67;98562.34;135982;1276;22520;-67
2023/06/02 02:12:02;;;;;;;;;;;;;;;13.30;67.90;98568.10;136012;1276;22764;-67
2023/06/02 02:15:06;;;;;;;;;;;;;;;13.26;67.86;98567.15;136008;1276;22723;-69
2023/06/02 02:18:09;;;;;;;28.10;10.70;;;;;;;13.21;67.89;98563.48;135963;1276;22541;-68
2023/06/02 02:21:12;;;;;;;;;;;;;;;13.18;67.53;98563.39;136016;1276;22506;-67
2023/06/02 02:24:14;;;;;;;24.50;9.00;;;;;;;13.18;67.81;98560.38;135965;1276;22958;-69
2023/06/02 02:27:17;;;;;;;27.00;9.50;;;;;;;13.12;67.84;98558.08;135989;1260;22523;-70
2023/06/02 02:30:19;;;;;;;27.90;9.10;;;;;;;13.10;68.11;98563.42;136000;1276;22520;-67
2023/06/02 02:33:22;;;;;;;28.10;9.90;;;;;;;13.15;68.22;98561.17;135994;1276;22523;-67
2023/06/02 02:36:24;;;;;;;;;;;;;;;13.14;68.51;98560.91;136029;1276;22510;-69
2023/06/02 02:39:27;;;;;;;27.20;11.10;;;;;;;13.11;68.51;98562.33;136038;1276;22516;-66
2023/06/02 02:42:29;;;;;;;27.80;10.80;;;;;;;13.02;68.79;98566.91;135975;1276;22559;-65
2023/06/02 02:45:32;;;;;;;;;;;;;;;12.97;68.67;98567.77;135995;1260;22491;-67
2023/06/02 02:48:34;;;;;;;28.60;12.00;;;;;;;12.90;69.08;98564.23;135980;1268;22550;-66
2023/06/02 02:51:37;;;;;;;;;;;;;;;12.90;68.78;98565.63;135957;1276;22517;-64
2023/06/02 02:54:40;;;;;;;26.90;9.90;;;;;;;12.80;69.60;98572.91;136004;1276;22639;-69
2023/06/02 02:57:43;;;;;;;26.00;9.60;;;;;;;12.71;70.33;98570.35;136013;1276;25400;-67
2023/06/02 03:00:46;;;;;;;26.10;8.40;;;;;;;12.86;70.13;98571.58;135998;1276;22629;-70
2023/06/02 03:03:51;;;;;;;30.60;10.10;;;;;;;12.99;69.81;98571.09;136019;1276;22518;-67
2023/06/02 03:06:54;;;;;;;27.20;9.90;;;;;;;13.02;69.89;98573.33;136006;1276;22520;-67
2023/06/02 03:09:57;;;;;;;27.70;10.20;;;;;;;13.13;70.10;98576.74;135991;1276;22661;-67
2023/06/02 03:12:59;;;;;;;27.90;10.00;;;;;;;13.25;69.97;98579.20;135975;1276;22527;-69
2023/06/02 03:16:02;;;;;;;30.80;10.20;;;;;;;13.30;69.40;98582.17;136007;1259;22550;-63
2023/06/02 03:19:05;;;;;;;35.50;10.70;;;;;;;13.35;69.22;98586.90;136010;1276;23955;-62
2023/06/02 03:22:07;;;;;;;;;;;;;;;13.50;68.91;98592.39;135981;1276;23000;-67
2023/06/02 03:25:10;;;;;;;25.40;9.30;;;;;;;13.58;69.19;98590.80;135988;1276;22548;-69
2023/06/02 03:28:12;;;;;;;28.10;9.20;;;;;;;13.76;69.18;98589.39;136025;1276;22545;-68
2023/06/02 03:31:15;;;;;;;25.60;9.60;;;;;;;13.94;69.18;98587.61;136002;1273;22534;-72
2023/06/02 03:34:17;;;;;;;27.80;9.60;;;;;;;14.17;69.53;98588.63;135978;1276;22541;-67
2023/06/02 03:37:20;;;;;;;;;;;;;;;14.38;69.31;98595.96;135969;1266;22520;-62
2023/06/02 03:40:22;;;;;;;26.80;9.10;;;;;;;14.53;69.22;98600.48;136024;1276;23725;-63
2023/06/02 03:43:25;;;;;;;;;;;;;;;14.68;68.79;98601.50;136014;1276;22501;-64
2023/06/02 03:46:27;;;;;;;25.00;9.20;;;;;;;14.83;68.90;98598.28;136008;1272;22619;-66
2023/06/02 03:49:31;;;;;;;25.10;9.30;;;;;;;14.91;69.17;98597.63;135980;1276;22782;-64
2023/06/02 03:52:34;;;;;;;26.90;9.00;;;;;;;15.10;69.32;98598.56;136025;1276;22558;-66
2023/06/02 03:55:37;;;;;;;26.80;8.50;;;;;;;15.38;68.60;98598.22;135988;1273;22536;-67
2023/06/02 03:58:40;;;;;;;26.90;8.90;;;;;;;15.64;68.30;98596.84;136030;1276;22528;-68
2023/06/02 04:01:43;;;;;;;27.00;7.90;;;;;;;15.95;68.05;98595.08;136011;1276;22520;-64
2023/06/02 04:04:45;;;;;;;26.90;8.10;;;;;;;16.19;67.65;98600.27;135985;1276;22534;-66
2023/06/02 04:07:48;;;;;;;26.20;8.10;;;;;;;16.16;68.19;98603.70;136028;1260;24231;-65
2023/06/02 04:10:50;;;;;;;27.00;8.80;;;;;;;16.20;68.47;98609.86;136007;1276;22523;-68
2023/06/02 04:13:53;;;;;;;26.20;8.90;;;;;;;16.19;68.46;98613.67;136038;1276;22516;-67
2023/06/02 04:16:56;;;;;;;26.50;8.50;;;;;;;16.25;68.65;98617.35;136013;1276;22529;-64
2023/06/02 04:19:59;;;;;;;22.10;7.80;;;;;;;16.40;68.88;98617.44;135956;1276;22535;-66
2023/06/02 04:23:02;;;;;;;23.10;7.80;;;;;;;16.47;68.61;98614.89;135983;1255;22556;-63
2023/06/02 04:26:04;;;;;;;22.70;7.90;;;;;;;16.41;68.91;98620.52;136057;1276;22520;-65
2023/06/02 04:29:07;;;;;;;28.80;8.40;;;;;;;16.52;69.08;98623.48;135981;1276;22537;-65
2023/06/02 04:32:10;;;;;;;26.20;7.90;;;;;;;16.70;68.67;98624.69;136018;1272;22576;-68
2023/06/02 04:35:12;;;;;;;25.90;8.10;;;;;;;16.88;68.06;98625.38;136036;1269;22510;-67
2023/06/02 04:38:15;;;;;;;24.00;7.50;;;;;;;17.04;68.11;98627.36;136034;1276;25252;-69
2023/06/02 04:41:17;;;;;;;26.60;8.70;;;;;;;17.12;67.46;98633.98;136015;1259;22578;-72
2023/06/02 04:44:20;;;;;;;25.50;7.80;;;;;;;17.19;67.34;98631.98;135920;1272;22547;-67
2023/06/02 04:47:23;;;;;;;26.50;8.60;;;;;;;17.27;67.19;98634.49;135935;1272;25405;-68
2023/06/02 04:50:27;;;;;;;27.80;8.50;;;;;;;17.32;66.30;98633.30;135912;1259;22516;-68
2023/06/02 04:53:30;;;;;;;24.20;8.70;;;;;;;17.33;66.99;98637.83;135925;1268;24234;-65
2023/06/02 04:56:32;;;;;;;24.10;7.90;;;;;;;17.30;66.92;98640.73;135925;1276;22984;-67
2023/06/02 04:59:35;;;;;;;;;;;;;;;17.31;67.37;98645.70;136045;1276;22534;-66
2023/06/02 05:02:40;;;;;;;23.90;8.10;;;;;;;17.41;67.12;98643.53;135988;1276;22572;-68
2023/06/02 05:05:43;;;;;;;24.70;8.30;;;;;;;17.55;66.70;98640.34;136006;1276;22517;-69
2023/06/02 05:08:45;;;;;;;25.70;8.30;;;;;;;17.72;66.95;98641.08;135978;1276;22578;-69
2023/06/02 05:11:47;;;;;;;;;;;;;;;17.91;66.20;98645.00;135958;1276;22641;-70
2023/06/02 05:14:50;;;;;;;28.90;8.00;;;;;;;18.01;66.02;98646.72;135962;1276;25600;-68
2023/06/02 05:17:53;;;;;;;;;;;;;;;18.26;65.25;98645.06;136010;1276;22541;-68
2023/06/02 05:20:55;;;;;;;25.20;7.90;;;;;;;18.42;64.79;98640.88;135985;1276;22524;-70
2023/06/02 05:23:58;;;;;;;25.90;8.90;;;;;;;18.58;64.05;98642.14;136023;1276;22530;-68
2023/06/02 05:27:00;;;;;;;27.30;7.90;;;;;;;18.68;63.92;98647.39;136029;1276;22524;-69
2023/06/02 05:30:03;;;;;;;26.00;8.90;;;;;;;18.71;63.53;98647.77;136029;1259;22565;-69
2023/06/02 05:33:05;;;;;;;25.00;7.50;;;;;;;18.84;64.20;98653.14;136016;1276;22530;-68
2023/06/02 05:36:08;;;;;;;26.20;8.20;;;;;;;18.96;63.91;98655.16;136038;1276;22527;-70
2023/06/02 05:39:10;;;;;;;24.50;7.50;;;;;;;19.12;62.80;98658.34;136031;1276;22547;-68
2023/06/02 05:42:13;;;;;;;26.60;7.50;;;;;;;19.23;61.79;98662.27;136065;1276;22517;-70
2023/06/02 05:45:15;;;;;;;24.50;6.80;;;;;;;19.23;61.11;98660.83;136026;1276;22517;-71
2023/06/02 05:48:18;;;;;;;22.50;6.60;;;;;;;19.24;60.39;98664.40;135995;1259;22514;-71
2023/06/02 05:51:20;;;;;;;22.40;6.50;;;;;;;19.43;60.23;98662.02;136046;1276;22543;-68
2023/06/02 05:54:22;;;;;;;23.60;6.80;;;;;;;19.64;60.51;98656.73;136040;1259;22542;-68
2023/06/02 05:57:25;;;;;;;22.70;6.10;;;;;;;19.88;60.14;98660.20;135975;1276;22550;-68
2023/06/02 06:00:27;;;;;;;22.40;6.00;;;;;;;19.87;58.73;98663.41;136004;1276;22531;-71
2023/06/02 06:03:30;;;;;;;23.30;6.20;;;;;;;19.91;57.87;98667.33;136041;1276;22543;-64
2023/06/02 06:06:32;;;;;;;22.00;5.90;;;;;;;20.01;58.49;98668.04;136059;1276;22532;-68
2023/06/02 06:09:35;;;;;;;21.70;6.60;;;;;;;20.22;58.02;98669.80;136060;1276;22519;-68
2023/06/02 06:12:37;;;;;;;23.90;6.20;;;;;;;20.30;56.27;98669.21;136055;1259;22581;-68
2023/06/02 06:15:39;;;;;;;21.80;5.90;;;;;;;20.41;57.00;98666.95;136044;1276;22633;-69
2023/06/02 06:18:42;;;;;;;21.40;6.30;;;;;;;20.56;55.76;98662.71;136075;1276;22614;-67
2023/06/02 06:21:44;;;;;;;22.50;5.80;;;;;;;20.77;55.91;98666.60;136056;1276;22536;-69
2023/06/02 06:24:47;;;;;;;21.90;6.60;;;;;;;20.71;54.95;98661.52;136042;1276;25411;-69
2023/06/02 06:27:49;;;;;;;20.50;5.70;;;;;;;20.82;54.83;98660.02;136020;1276;22570;-68
2023/06/02 06:30:52;;;;;;;24.80;5.50;;;;;;;20.85;54.22;98662.98;136025;1276;22530;-70
2023/06/02 06:33:54;;;;;;;20.50;5.30;;;;;;;20.94;53.43;98670.70;136016;1276;22531;-68
2023/06/02 06:36:57;;;;;;;20.40;4.40;;;;;;;20.93;53.13;98675.63;136070;1275;22516;-70
2023/06/02 06:39:59;;;;;;;19.70;4.80;;;;;;;20.77;52.65;98671.92;136026;1276;22985;-69
2023/06/02 06:43:01;;;;;;;19.10;4.60;;;;;;;20.84;52.71;98679.70;136086;1275;24050;-70
2023/06/02 06:46:05;;;;;;;18.40;4.90;;;;;;;21.11;51.29;98665.83;136080;1276;22515;-70
2023/06/02 06:49:07;;;;;;;23.20;5.10;;;;;;;21.38;51.06;98674.34;136055;1276;22528;-74
2023/06/02 06:52:10;;;;;;;17.90;4.80;;;;;;;21.32;50.09;98673.37;136054;1276;22526;-73
2023/06/02 06:55:12;;;;;;;23.60;4.80;;;;;;;21.35;50.85;98678.71;136013;1276;22591;-64
2023/06/02 06:58:14;;;;;;;17.90;4.50;;;;;;;20.91;49.84;98691.77;136051;1276;24247;-71
2023/06/02 07:01:17;;;;;;;20.50;4.70;;;;;;;20.70;50.52;98694.65;136012;1271;22521;-69
2023/06/02 07:04:19;;;;;;;20.70;5.30;;;;;;;20.56;51.22;98699.31;136047;1276;25452;-70
2023/06/02 07:07:22;;;;;;;22.00;5.40;;;;;;;20.92;50.98;98706.05;136043;1260;22520;-69
2023/06/02 07:10:24;;;;;;;27.50;5.50;;;;;;;20.88;49.85;98710.40;136042;1276;22531;-69
2023/06/02 07:13:27;;;;;;;20.30;4.70;;;;;;;20.42;50.12;98716.04;136076;1276;22526;-71
2023/06/02 07:16:29;;;;;;;18.90;4.80;;;;;;;20.05;50.81;98714.87;136042;1276;22534;-72
2023/06/02 07:19:32;;;;;;;19.20;4.60;;;;;;;20.21;50.79;98711.08;136023;1276;22546;-71
2023/06/02 07:22:34;;;;;;;17.40;4.30;;;;;;;20.69;51.50;98704.00;136054;1276;23015;-69
2023/06/02 07:25:37;;;;;;;17.90;5.00;;;;;;;21.15;50.28;98701.46;136051;1259;22527;-71
2023/06/02 07:28:39;;;;;;;18.60;4.60;;;;;;;21.13;48.86;98713.48;136035;1276;22642;-74
2023/06/02 07:31:43;;;;;;;18.10;5.00;;;;;;;20.92;49.45;98713.15;136048;1276;22514;-71
2023/06/02 07:34:45;;;;;;;20.00;4.70;;;;;;;21.00;49.34;98714.06;136056;1259;22603;-72
2023/06/02 07:37:48;;;;;;;20.40;5.00;;;;;;;21.28;49.46;98714.71;136055;1276;22546;-72
2023/06/02 07:40:50;;;;;;;20.40;4.70;;;;;;;21.66;48.89;98715.65;136002;1276;22544;-69
2023/06/02 07:43:53;;;;;;;16.80;4.70;;;;;;;21.83;48.22;98716.98;136074;1276;22543;-69
2023/06/02 07:46:55;;;;;;;17.40;4.40;;;;;;;21.42;48.46;98719.08;136061;1276;22521;-70
2023/06/02 07:49:57;;;;;;;24.00;4.20;;;;;;;20.94;48.58;98724.64;136061;1276;22625;-71
2023/06/02 07:53:00;;;;;;;19.70;4.50;;;;;;;20.58;49.36;98718.27;136046;1276;22642;-70
2023/06/02 08:10:35;;;;;;;22.90;5.20;;;;;;;22.27;45.66;98728.50;136005;1276;22554;-68
2023/06/02 08:13:37;;;;;;;20.80;4.90;;;;;;;22.08;47.40;98727.77;136076;1276;25303;-68
2023/06/02 08:16:41;;;;;;;18.60;5.20;;;;;;;22.25;45.52;98738.67;136008;1276;22539;-71
2023/06/02 08:19:45;;;;;;;17.70;5.30;;;;;;;22.34;45.75;98739.90;136038;1276;22642;-69
2023/06/02 08:22:48;;;;;;;22.50;6.50;;;;;;;22.03;46.82;98747.94;136038;1276;25188;-69
2023/06/02 08:25:50;;;;;;;20.30;5.00;;;;;;;21.71;47.01;98749.91;136029;1276;22522;-72
2023/06/02 08:28:53;;;;;;;20.10;4.80;;;;;;;21.76;46.60;98745.86;136044;1276;24371;-70
2023/06/02 08:31:55;;;;;;;22.00;5.10;;;;;;;22.13;45.87;98742.23;136038;1276;22524;-70
2023/06/02 08:35:01;;;;;;;18.80;4.70;;;;;;;22.09;45.06;98750.85;136030;1276;22536;-70
2023/06/02 08:38:06;;;;;;;16.00;4.30;;;;;;;22.09;46.93;98749.35;136031;1276;22526;-67
2023/06/02 08:41:09;;;;;;;20.40;5.50;;;;;;;22.16;45.15;98756.11;136024;1276;22556;-66
2023/06/02 08:44:12;;;;;;;15.90;4.40;;;;;;;21.91;45.55;98760.92;136003;1276;22571;-70
2023/06/02 08:47:15;;;;;;;17.50;4.70;;;;;;;22.24;44.35;98756.40;136038;1276;22513;-66
2023/06/02 08:50:17;;;;;;;18.60;5.20;;;;;;;22.60;43.99;98757.33;136024;1276;22647;-65
2023/06/02 08:53:19;;;;;;;18.50;4.70;;;;;;;22.47;44.17;98759.27;136046;1276;22560;-65
2023/06/02 08:56:22;;;;;;;17.10;4.00;;;;;;;21.82;44.19;98763.83;136054;1274;22645;-71
2023/06/02 08:59:24;;;;;;;24.70;5.00;;;;;;;21.62;44.28;98765.67;136012;1276;22516;-70
2023/06/02 09:02:27;;;;;;;21.00;6.00;;;;;;;22.21;45.15;98766.48;136017;1276;23886;-71
2023/06/02 09:05:29;;;;;;;16.40;4.50;;;;;;;22.25;44.53;98775.82;136022;1276;22546;-69
2023/06/02 09:08:32;;;;;;;19.90;4.10;;;;;;;22.10;44.95;98768.35;136011;1276;22531;-65
2023/06/02 09:11:34;;;;;;;17.60;4.20;;;;;;;22.09;44.07;98773.95;135980;1276;22632;-71
2023/06/02 09:14:36;;;;;;;20.40;4.30;;;;;;;22.34;44.22;98771.02;136029;1276;22549;-70
2023/06/02 09:17:39;;;;;;;17.70;4.70;;;;;;;22.28;43.50;98775.58;136032;1276;24060;-69
2023/06/02 09:20:41;;;;;;;20.50;4.40;;;;;;;22.55;44.08;98780.80;136011;1276;22533;-70
2023/06/02 09:23:44;;;;;;;17.00;4.10;;;;;;;22.36;43.65;98780.56;136057;1276;22524;-69
2023/06/02 09:26:46;;;;;;;17.80;4.90;;;;;;;22.02;43.38;98784.48;136063;1276;23610;-70
2023/06/02 09:29:49;;;;;;;15.80;4.60;;;;;;;22.21;42.91;98795.61;136079;1276;22944;-71
2023/06/02 09:32:51;;;;;;;18.50;4.50;;;;;;;21.77;42.31;98798.44;136087;1276;22762;-70
2023/06/02 09:35:53;;;;;;;20.10;4.80;;;;;;;21.66;43.22;98795.88;136043;1276;25475;-69
2023/06/02 09:38:56;;;;;;;19.80;4.40;;;;;;;21.13;43.20;98814.06;135985;1276;22516;-71
2023/06/02 09:41:58;;;;;;;16.90;4.30;;;;;;;21.45;43.72;98807.52;135966;1276;23000;-69
2023/06/02 09:45:01;;;;;;;14.90;4.20;;;;;;;21.60;42.21;98800.39;135984;1276;24219;-71
2023/06/02 09:48:04;;;;;;;21.40;4.90;;;;;;;21.83;42.24;98808.31;135974;1276;22543;-71
2023/06/02 09:51:07;;;;;;;17.70;5.20;;;;;;;22.31;42.17;98797.78;135924;1276;22559;-70
2023/06/02 09:54:09;;;;;;;18.30;5.00;;;;;;;22.23;41.51;98806.40;136050;1276;22642;-73
2023/06/02 09:57:12;;;;;;;18.90;5.30;;;;;;;22.23;41.00;98797.19;135994;1276;22523;-73
2023/06/02 10:00:14;;;;;;;18.80;5.60;;;;;;;22.30;41.27;98796.25;136026;1276;25398;-70
2023/06/02 10:03:17;;;;;;;17.80;5.40;;;;;;;21.90;41.84;98800.00;135997;1276;22520;-70
2023/06/02 10:06:19;;;;;;;17.10;5.30;;;;;;;21.60;42.44;98803.45;136085;1276;22516;-72
2023/06/02 10:09:22;;;;;;;20.10;5.30;;;;;;;21.98;43.16;98792.41;136029;1276;22587;-69
2023/06/02 10:12:24;;;;;;;18.70;5.50;;;;;;;22.62;41.83;98797.67;135990;1276;25395;-70
2023/06/02 10:15:27;;;;;;;20.60;5.40;;;;;;;23.08;41.42;98787.16;136032;1276;22549;-68
2023/06/02 10:18:29;;;;;;;14.50;4.90;;;;;;;22.86;41.21;98794.00;136026;1259;24225;-72
2023/06/02 10:21:32;;;;;;;19.60;5.20;;;;;;;22.55;41.63;98795.07;136032;1276;22519;-71
2023/06/02 10:24:34;;;;;;;15.80;4.90;;;;;;;22.79;41.90;98795.86;136020;1276;22517;-72
2023/06/02 10:27:37;;;;;;;19.20;5.30;;;;;;;22.77;40.97;98794.83;136006;1276;22546;-71
2023/06/02 10:30:39;;;;;;;19.10;5.10;;;;;;;22.31;41.90;98796.67;136051;1276;22582;-73
2023/06/02 10:33:42;;;;;;;19.80;5.20;;;;;;;21.86;41.69;98806.20;136026;1263;24241;-73
2023/06/02 10:36:44;;;;;;;17.70;4.70;;;;;;;21.65;42.24;98802.03;136046;1276;22578;-72
2023/06/02 10:39:47;;;;;;;19.00;5.30;;;;;;;21.97;41.60;98800.36;135942;1276;23780;-72
2023/06/02 10:42:49;;;;;;;18.20;5.10;;;;;;;22.80;41.53;98800.30;136031;1276;22514;-72
2023/06/02 10:45:52;;;;;;;17.40;5.10;;;;;;;23.21;40.02;98802.37;136047;1276;22516;-72
2023/06/02 10:48:54;;;;;;;17.40;4.50;;;;;;;22.78;40.47;98808.73;136082;1276;22499;-71
2023/06/02 10:51:57;;;;;;;17.00;4.50;;;;;;;22.37;39.68;98804.35;136046;1276;22575;-71
2023/06/02 10:54:59;;;;;;;13.90;4.20;;;;;;;22.29;40.28;98799.34;131735;1276;5388413;-73
2023/06/02 10:58:12;;;;;;;18.30;4.60;;;;;;;22.91;40.40;98807.48;135859;1276;22623;-71
2023/06/02 11:01:14;;;;;;;16.90;4.80;;;;;;;22.84;40.01;98827.15;136014;1276;22519;-71
2023/06/02 11:04:17;;;;;;;18.10;4.90;;;;;;;22.34;41.71;98812.70;136044;1276;22591;-70
2023/06/02 11:07:21;;;;;;;20.40;5.60;;;;;;;22.20;41.93;98829.95;136012;1276;22523;-74
2023/06/02 11:10:24;;;;;;;20.20;5.20;;;;;;;22.52;41.91;98823.02;135993;1276;22624;-73
2023/06/02 11:13:27;;;;;;;20.20;5.40;;;;;;;22.75;41.67;98827.45;136024;1276;22610;-72
2023/06/02 11:16:29;;;;;;;20.60;5.60;;;;;;;22.22;42.68;98838.05;136004;1276;22569;-73
2023/06/02 11:19:32;;;;;;;18.70;5.10;;;;;;;22.05;43.23;98850.98;136020;1276;22679;-70
2023/06/02 11:22:34;;;;;;;20.00;5.60;;;;;;;22.15;43.72;98852.16;136002;1276;22516;-66
2023/06/02 11:25:37;;;;;;;19.60;5.90;;;;;;;22.43;43.74;98855.34;136004;1276;23819;-67
2023/06/02 11:28:40;;;;;;;21.00;6.30;;;;;;;22.58;43.86;98859.27;136035;1276;22516;-71
2023/06/02 11:31:43;;;;;;;22.20;6.60;;;;;;;22.57;43.40;98859.17;136001;1276;22520;-70
2023/06/02 11:34:45;;;;;;;20.60;6.10;;;;;;;22.53;44.82;98861.98;136005;1276;25243;-69
2023/06/02 11:37:48;;;;;;;22.30;7.30;;;;;;;22.46;44.05;98869.48;136042;1266;22535;-69
2023/06/02 11:40:50;;;;;;;22.40;7.30;;;;;;;22.29;43.24;98864.54;136032;1276;22536;-72
2023/06/02 11:43:53;;;;;;;23.00;7.50;;;;;;;22.33;43.86;98872.48;136024;1262;22537;-70
2023/06/02 11:46:59;;;;;;;24.20;8.00;;;;;;;22.19;44.18;98884.66;136016;1276;22516;-72
2023/06/02 11:50:01;;;;;;;24.30;7.40;;;;;;;21.98;43.83;98885.52;136015;1253;24232;-72
2023/06/02 11:53:04;;;;;;;20.20;6.60;;;;;;;21.67;43.75;98883.47;136055;1276;22530;-68
2023/06/02 11:56:06;;;;;;;19.30;6.40;;;;;;;21.49;43.57;98888.73;135990;1275;22528;-71
2023/06/02 11:59:09;;;;;;;16.80;4.90;;;;;;;21.42;43.92;98891.58;136004;1276;22583;-70
2023/06/02 12:02:11;;;;;;;21.80;6.30;;;;;;;21.37;44.02;98888.52;136029;1276;25407;-70
2023/06/02 12:05:14;;;;;;;19.50;6.20;;;;;;;21.64;44.29;98891.47;136015;1275;22555;-71
2023/06/02 12:08:20;;;;;;;18.50;5.60;;;;;;;21.67;44.17;98895.73;135939;1276;22519;-71
2023/06/02 12:11:22;;;;;;;19.50;6.00;;;;;;;21.68;44.46;98902.02;136008;1276;22520;-69
2023/06/02 12:14:25;;;;;;;22.90;6.90;;;;;;;21.98;45.09;98896.52;136007;1259;22527;-69
2023/06/02 12:17:28;;;;;;;20.70;6.10;;;;;;;21.80;44.89;98901.64;135990;1276;25341;-70
2023/06/02 12:20:30;;;;;;;19.90;5.60;;;;;;;20.86;45.17;98920.27;136011;1276;24621;-69
2023/06/02 12:23:33;;;;;;;17.90;4.90;;;;;;;20.18;45.79;98925.09;135991;1276;25274;-67
2023/06/02 12:26:35;;;;;;;16.10;4.60;;;;;;;19.94;46.19;98928.01;135937;1276;22994;-70
2023/06/02 12:29:38;;;;;;;16.40;4.40;;;;;;;20.03;46.04;98922.56;135997;1276;22520;-70
2023/06/02 12:32:40;;;;;;;15.20;4.40;;;;;;;20.23;46.14;98923.58;135957;1276;22519;-70
2023/06/02 12:35:43;;;;;;;12.10;3.50;;;;;;;21.11;45.77;98912.94;135883;1261;22538;-74
2023/06/02 12:38:45;;;;;;;18.60;4.30;;;;;;;21.59;43.39;98914.70;135912;1276;22516;-67
2023/06/02 12:41:48;;;;;;;16.20;4.20;;;;;;;21.78;42.96;98912.58;135904;1276;22516;-70
2023/06/02 12:44:52;;;;;;;15.00;3.90;;;;;;;22.21;43.11;98910.66;135897;1276;22569;-68
2023/06/02 12:47:55;;;;;;;14.90;4.00;;;;;;;22.39;42.78;98910.66;135950;1276;22536;-73
2023/06/02 12:50:57;;;;;;;18.10;4.40;;;;;;;22.65;42.79;98903.76;136008;1276;22789;-71
2023/06/02 12:54:00;;;;;;;18.60;4.30;;;;;;;22.82;41.83;98906.70;135950;1266;22538;-71
2023/06/02 12:57:03;;;;;;;16.60;4.60;;;;;;;22.31;41.41;98910.65;135972;1263;22523;-73
2023/06/02 13:00:06;;;;;;;17.60;4.70;;;;;;;22.01;42.31;98909.59;135981;1276;22531;-71
2023/06/02 13:03:08;;;;;;;18.20;4.50;;;;;;;22.10;42.23;98903.09;135979;1256;22519;-72
2023/06/02 13:06:12;;;;;;;18.60;4.40;;;;;;;21.57;42.81;98906.21;135976;1276;22543;-73
2023/06/02 13:09:14;;;;;;;19.20;4.40;;;;;;;21.21;43.65;98907.13;135974;1276;24250;-66
2023/06/02 13:12:17;;;;;;;14.40;3.80;;;;;;;20.95;44.46;98904.14;135961;1259;22520;-67
2023/06/02 13:15:20;;;;;;;19.50;4.40;;;;;;;20.75;45.05;98910.44;135938;1276;25475;-69
2023/06/02 13:18:24;;;;;;;16.20;4.00;;;;;;;20.62;44.73;98911.37;135958;1276;22516;-73
2023/06/02 13:21:26;;;;;;;16.40;4.00;;;;;;;20.38;44.95;98922.64;135972;1276;24202;-71
2023/06/02 13:24:30;;;;;;;20.60;4.50;;;;;;;20.16;45.76;98924.44;135944;1276;22534;-71
2023/06/02 13:27:33;;;;;;;15.40;4.40;;;;;;;20.00;46.42;98927.46;135970;1276;22554;-71
2023/06/02 13:30:36;;;;;;;16.40;4.10;;;;;;;20.05;46.11;98923.89;135933;1276;24990;-69
2023/06/02 13:33:38;;;;;;;20.20;4.60;;;;;;;20.38;45.89;98921.23;135949;1267;22527;-70
2023/06/02 13:36:41;;;;;;;18.90;4.30;;;;;;;21.43;45.88;98912.95;135999;1276;22535;-69
2023/06/02 13:39:43;;;;;;;13.70;3.80;;;;;;;22.05;43.20;98911.42;135916;1276;22532;-69
2023/06/02 13:42:46;;;;;;;14.20;3.90;;;;;;;22.17;43.23;98908.90;136004;1276;22541;-69
2023/06/02 13:45:48;;;;;;;18.60;4.80;;;;;;;21.87;44.20;98913.80;136006;1259;22524;-64
2023/06/02 13:48:51;;;;;;;18.20;4.50;;;;;;;21.62;43.91;98910.13;135997;1276;22651;-69
2023/06/02 13:51:53;;;;;;;17.50;4.60;;;;;;;21.32;44.58;98909.91;136005;1276;25349;-65
2023/06/02 13:54:56;;;;;;;16.60;4.40;;;;;;;21.15;45.05;98917.33;136003;1276;26342;-64
2023/06/02 13:57:58;;;;;;;14.00;4.10;;;;;;;20.95;45.35;98927.53;135991;1276;22533;-67
2023/06/02 14:01:01;;;;;;;16.40;4.40;;;;;;;20.55;45.56;98929.27;135978;1276;22530;-71
2023/06/02 14:04:04;;;;;;;22.30;4.70;;;;;;;20.33;45.95;98936.79;135999;1276;22533;-69
2023/06/02 14:07:06;;;;;;;19.30;5.00;;;;;;;20.30;46.25;98930.90;135930;1259;22512;-73
2023/06/02 14:10:09;;;;;;;15.40;4.30;;;;;;;20.25;46.41;98928.21;135984;1258;22717;-71
2023/06/02 14:13:11;;;;;;;18.10;4.50;;;;;;;20.20;46.71;98929.54;135934;1276;22523;-70
2023/06/02 14:16:14;;;;;;;15.50;4.30;;;;;;;20.15;46.79;98943.56;135958;1276;22551;-68
2023/06/02 14:19:16;;;;;;;17.70;4.60;;;;;;;19.95;46.88;98946.77;135967;1276;22632;-69
2023/06/02 14:22:19;;;;;;;16.20;4.40;;;;;;;19.84;47.19;98946.56;135966;1276;24049;-70